Terminal Aerodrome Forecast
Issued by NWS

Home | Current Version | Previous Version | Text Only | Print | Product List | Glossary On
Versions: 1 2 3 4 5 6 7 8 9 10 11 12 13 14 15 16 17 18 19 20 21 22 23 24 25 26
000
FTUS43 KIND 062331
TAFBMG
TAF
KBMG 062331Z 0700/0724 01008KT P6SM FEW200
     FM070400 VRB04KT P6SM FEW250
     FM071800 13006KT P6SM SKC
     AMD LTD TO CLD VIS AND WIND 0702/0714=

USA.gov is the U.S. government's official web portal to all federal, state and local government web resources and services.